CLL3 weather

Lac Lamothe Water Aerodrome
Lac Lamothe, Quebec, Canada

Public forecast

Using degrees Celsius for public forecast. Weather courtesy of forecast.io.

Closest aviation weather report (METAR) to Lac Lamothe Water Aerodrome

Closest report is CFB Bagotville, 25.2 nm (46.6 km) SSE. Retrieved 2020/07/11 04:00 UTC (45 minutes ago):

CYBG 110400Z 10010KT 25SM FEW090 21/18 A2986 RMK AC1 SLP109

Closest aviation forecast (TAF) to Lac Lamothe Water Aerodrome

Closest forecast is CFB Bagotville, 25.2 nm (46.6 km) SSE. Retrieved 2020-07-11 00:33 UTC (4 hours ago):

TAF TAF CYBG 102330Z 1100/1124 10010KT P6SM SCT090 TEMPO 1100/1103 P6SM -SHRA BKN090 BECMG 1101/1103 VRB03KT FM111500 10015KT P6SM BKN030 FM111700 10010G20KT P6SM -SHRA OVC020 RMK NXT FCST BY 110600Z